sensor_id;sensor_type;location;lat;lon;timestamp;P1;durP1;ratioP1;P2;durP2;ratioP2
3185;SDS011;1604;53.700;10.252;2023-08-31T00:01:01;22.03;;;17.40;;
3185;SDS011;1604;53.700;10.252;2023-08-31T00:04:06;23.97;;;19.47;;
3185;SDS011;1604;53.700;10.252;2023-08-31T00:07:13;28.70;;;20.00;;
3185;SDS011;1604;53.700;10.252;2023-08-31T00:10:19;21.17;;;17.57;;
3185;SDS011;1604;53.700;10.252;2023-08-31T00:13:21;23.07;;;19.50;;
3185;SDS011;1604;53.700;10.252;2023-08-31T00:16:24;27.83;;;20.07;;
3185;SDS011;1604;53.700;10.252;2023-08-31T00:19:28;23.80;;;20.63;;
3185;SDS011;1604;53.700;10.252;2023-08-31T00:22:30;22.60;;;18.80;;
3185;SDS011;1604;53.700;10.252;2023-08-31T00:25:32;28.97;;;20.53;;
3185;SDS011;1604;53.700;10.252;2023-08-31T00:28:34;24.37;;;17.77;;
3185;SDS011;1604;53.700;10.252;2023-08-31T00:31:38;22.27;;;18.33;;
3185;SDS011;1604;53.700;10.252;2023-08-31T00:34:44;28.70;;;18.27;;
3185;SDS011;1604;53.700;10.252;2023-08-31T00:37:49;22.20;;;18.93;;
3185;SDS011;1604;53.700;10.252;2023-08-31T00:40:51;20.40;;;17.50;;
3185;SDS011;1604;53.700;10.252;2023-08-31T00:43:53;20.77;;;17.47;;
3185;SDS011;1604;53.700;10.252;2023-08-31T00:46:55;22.60;;;17.50;;
3185;SDS011;1604;53.700;10.252;2023-08-31T00:49:58;30.47;;;16.70;;
3185;SDS011;1604;53.700;10.252;2023-08-31T00:53:01;21.10;;;16.80;;
3185;SDS011;1604;53.700;10.252;2023-08-31T00:56:03;24.37;;;17.90;;
3185;SDS011;1604;53.700;10.252;2023-08-31T00:59:07;19.80;;;17.07;;
3185;SDS011;1604;53.700;10.252;2023-08-31T01:02:11;21.07;;;17.70;;
3185;SDS011;1604;53.700;10.252;2023-08-31T01:05:25;23.37;;;16.60;;
3185;SDS011;1604;53.700;10.252;2023-08-31T01:08:48;20.83;;;15.87;;
3185;SDS011;1604;53.700;10.252;2023-08-31T01:11:57;21.67;;;17.37;;
3185;SDS011;1604;53.700;10.252;2023-08-31T01:15:06;20.40;;;16.67;;
3185;SDS011;1604;53.700;10.252;2023-08-31T01:18:11;29.30;;;18.37;;
3185;SDS011;1604;53.700;10.252;2023-08-31T01:21:20;22.07;;;17.03;;
3185;SDS011;1604;53.700;10.252;2023-08-31T01:24:27;21.60;;;17.20;;
3185;SDS011;1604;53.700;10.252;2023-08-31T01:27:29;20.60;;;15.63;;
3185;SDS011;1604;53.700;10.252;2023-08-31T01:30:31;19.40;;;15.47;;
3185;SDS011;1604;53.700;10.252;2023-08-31T01:33:34;20.43;;;14.73;;
3185;SDS011;1604;53.700;10.252;2023-08-31T01:36:36;16.50;;;14.80;;
3185;SDS011;1604;53.700;10.252;2023-08-31T01:39:46;26.17;;;14.83;;
3185;SDS011;1604;53.700;10.252;2023-08-31T01:42:50;21.40;;;13.60;;
3185;SDS011;1604;53.700;10.252;2023-08-31T01:45:53;18.60;;;13.73;;
3185;SDS011;1604;53.700;10.252;2023-08-31T01:48:55;15.33;;;12.50;;
3185;SDS011;1604;53.700;10.252;2023-08-31T01:51:58;14.53;;;12.97;;
3185;SDS011;1604;53.700;10.252;2023-08-31T01:55:02;17.40;;;13.60;;
3185;SDS011;1604;53.700;10.252;2023-08-31T01:58:04;18.53;;;12.43;;
3185;SDS011;1604;53.700;10.252;2023-08-31T02:01:06;14.03;;;12.60;;
3185;SDS011;1604;53.700;10.252;2023-08-31T02:04:08;15.37;;;12.60;;
3185;SDS011;1604;53.700;10.252;2023-08-31T02:07:10;14.83;;;12.20;;
3185;SDS011;1604;53.700;10.252;2023-08-31T02:10:13;15.47;;;13.17;;
3185;SDS011;1604;53.700;10.252;2023-08-31T02:13:15;13.73;;;12.33;;
3185;SDS011;1604;53.700;10.252;2023-08-31T02:16:17;19.27;;;13.03;;
3185;SDS011;1604;53.700;10.252;2023-08-31T02:19:19;14.73;;;11.77;;
3185;SDS011;1604;53.700;10.252;2023-08-31T02:22:24;19.50;;;12.03;;
3185;SDS011;1604;53.700;10.252;2023-08-31T02:25:28;15.50;;;12.27;;
3185;SDS011;1604;53.700;10.252;2023-08-31T02:28:30;14.77;;;11.60;;
3185;SDS011;1604;53.700;10.252;2023-08-31T02:31:32;16.23;;;11.47;;
3185;SDS011;1604;53.700;10.252;2023-08-31T02:34:34;14.20;;;11.57;;
3185;SDS011;1604;53.700;10.252;2023-08-31T02:37:36;16.53;;;12.03;;
3185;SDS011;1604;53.700;10.252;2023-08-31T02:40:42;16.33;;;11.03;;
3185;SDS011;1604;53.700;10.252;2023-08-31T02:43:49;18.83;;;11.40;;
3185;SDS011;1604;53.700;10.252;2023-08-31T02:46:51;12.43;;;10.57;;
3185;SDS011;1604;53.700;10.252;2023-08-31T02:49:53;12.63;;;10.37;;
3185;SDS011;1604;53.700;10.252;2023-08-31T02:52:56;12.20;;;10.90;;
3185;SDS011;1604;53.700;10.252;2023-08-31T02:55:59;13.73;;;10.00;;
3185;SDS011;1604;53.700;10.252;2023-08-31T02:59:04;12.23;;;10.00;;
3185;SDS011;1604;53.700;10.252;2023-08-31T03:02:06;11.43;;;9.80;;
3185;SDS011;1604;53.700;10.252;2023-08-31T03:05:08;14.20;;;10.07;;
3185;SDS011;1604;53.700;10.252;2023-08-31T03:08:10;14.57;;;10.40;;
3185;SDS011;1604;53.700;10.252;2023-08-31T03:11:17;18.07;;;11.20;;
3185;SDS011;1604;53.700;10.252;2023-08-31T03:14:18;14.93;;;10.60;;
3185;SDS011;1604;53.700;10.252;2023-08-31T03:17:21;11.30;;;10.07;;
3185;SDS011;1604;53.700;10.252;2023-08-31T03:20:23;16.73;;;10.53;;
3185;SDS011;1604;53.700;10.252;2023-08-31T03:23:28;11.97;;;9.73;;
3185;SDS011;1604;53.700;10.252;2023-08-31T03:26:32;14.90;;;9.57;;
3185;SDS011;1604;53.700;10.252;2023-08-31T03:29:34;16.93;;;11.57;;
3185;SDS011;1604;53.700;10.252;2023-08-31T03:32:36;13.93;;;9.30;;
3185;SDS011;1604;53.700;10.252;2023-08-31T03:35:38;16.30;;;10.90;;
3185;SDS011;1604;53.700;10.252;2023-08-31T03:38:40;11.00;;;9.80;;
3185;SDS011;1604;53.700;10.252;2023-08-31T03:41:43;16.23;;;8.77;;
3185;SDS011;1604;53.700;10.252;2023-08-31T03:44:45;15.50;;;10.23;;
3185;SDS011;1604;53.700;10.252;2023-08-31T03:47:47;15.67;;;10.27;;
3185;SDS011;1604;53.700;10.252;2023-08-31T03:50:49;23.40;;;9.67;;
3185;SDS011;1604;53.700;10.252;2023-08-31T03:53:51;10.90;;;8.97;;
3185;SDS011;1604;53.700;10.252;2023-08-31T03:56:56;12.63;;;8.83;;
3185;SDS011;1604;53.700;10.252;2023-08-31T03:59:58;15.73;;;9.53;;
3185;SDS011;1604;53.700;10.252;2023-08-31T04:03:00;12.00;;;10.03;;
3185;SDS011;1604;53.700;10.252;2023-08-31T04:06:02;11.73;;;9.10;;
3185;SDS011;1604;53.700;10.252;2023-08-31T04:09:05;10.83;;;9.67;;
3185;SDS011;1604;53.700;10.252;2023-08-31T04:12:11;11.63;;;8.60;;
3185;SDS011;1604;53.700;10.252;2023-08-31T04:15:13;14.77;;;9.77;;
3185;SDS011;1604;53.700;10.252;2023-08-31T04:18:15;13.53;;;8.50;;
3185;SDS011;1604;53.700;10.252;2023-08-31T04:21:17;10.37;;;8.33;;
3185;SDS011;1604;53.700;10.252;2023-08-31T04:24:19;10.27;;;7.70;;
3185;SDS011;1604;53.700;10.252;2023-08-31T04:27:22;10.43;;;8.40;;
3185;SDS011;1604;53.700;10.252;2023-08-31T04:30:24;11.80;;;7.60;;
3185;SDS011;1604;53.700;10.252;2023-08-31T04:33:27;10.77;;;7.83;;
3185;SDS011;1604;53.700;10.252;2023-08-31T04:36:29;13.33;;;8.10;;
3185;SDS011;1604;53.700;10.252;2023-08-31T04:39:31;8.93;;;7.00;;
3185;SDS011;1604;53.700;10.252;2023-08-31T04:42:34;16.33;;;7.27;;
3185;SDS011;1604;53.700;10.252;2023-08-31T04:45:36;13.07;;;5.97;;
3185;SDS011;1604;53.700;10.252;2023-08-31T04:48:38;14.53;;;7.53;;
3185;SDS011;1604;53.700;10.252;2023-08-31T04:51:43;13.13;;;7.10;;
3185;SDS011;1604;53.700;10.252;2023-08-31T04:54:45;10.30;;;7.20;;
3185;SDS011;1604;53.700;10.252;2023-08-31T04:57:49;7.83;;;6.70;;
3185;SDS011;1604;53.700;10.252;2023-08-31T05:00:51;12.27;;;7.07;;
3185;SDS011;1604;53.700;10.252;2023-08-31T05:03:53;8.17;;;6.90;;
3185;SDS011;1604;53.700;10.252;2023-08-31T05:06:55;6.30;;;5.70;;
3185;SDS011;1604;53.700;10.252;2023-08-31T05:09:57;6.23;;;5.60;;
3185;SDS011;1604;53.700;10.252;2023-08-31T05:13:00;17.37;;;6.33;;
3185;SDS011;1604;53.700;10.252;2023-08-31T05:16:04;7.77;;;5.40;;
3185;SDS011;1604;53.700;10.252;2023-08-31T05:19:06;6.63;;;5.73;;
3185;SDS011;1604;53.700;10.252;2023-08-31T05:22:07;6.03;;;5.00;;
3185;SDS011;1604;53.700;10.252;2023-08-31T05:25:09;7.40;;;5.17;;
3185;SDS011;1604;53.700;10.252;2023-08-31T05:28:13;23.03;;;6.83;;
3185;SDS011;1604;53.700;10.252;2023-08-31T05:31:15;8.03;;;6.80;;
3185;SDS011;1604;53.700;10.252;2023-08-31T05:34:17;6.63;;;5.17;;
3185;SDS011;1604;53.700;10.252;2023-08-31T05:37:25;9.87;;;6.30;;
3185;SDS011;1604;53.700;10.252;2023-08-31T05:40:29;9.57;;;5.87;;
3185;SDS011;1604;53.700;10.252;2023-08-31T05:43:32;10.70;;;5.13;;
3185;SDS011;1604;53.700;10.252;2023-08-31T05:46:34;13.57;;;6.60;;
3185;SDS011;1604;53.700;10.252;2023-08-31T05:49:36;20.10;;;8.27;;
3185;SDS011;1604;53.700;10.252;2023-08-31T05:52:38;11.03;;;6.60;;
3185;SDS011;1604;53.700;10.252;2023-08-31T05:55:44;7.97;;;5.90;;
3185;SDS011;1604;53.700;10.252;2023-08-31T05:58:47;16.63;;;6.70;;
3185;SDS011;1604;53.700;10.252;2023-08-31T06:01:50;12.30;;;6.90;;
3185;SDS011;1604;53.700;10.252;2023-08-31T06:04:52;7.07;;;5.03;;
3185;SDS011;1604;53.700;10.252;2023-08-31T06:07:54;5.40;;;4.90;;
3185;SDS011;1604;53.700;10.252;2023-08-31T06:10:56;9.57;;;5.50;;
3185;SDS011;1604;53.700;10.252;2023-08-31T06:14:02;9.43;;;5.00;;
3185;SDS011;1604;53.700;10.252;2023-08-31T06:17:04;4.70;;;4.30;;
3185;SDS011;1604;53.700;10.252;2023-08-31T06:20:06;10.30;;;4.63;;
3185;SDS011;1604;53.700;10.252;2023-08-31T06:23:09;18.03;;;5.37;;
3185;SDS011;1604;53.700;10.252;2023-08-31T06:26:12;5.53;;;4.50;;
3185;SDS011;1604;53.700;10.252;2023-08-31T06:29:16;5.60;;;4.47;;
3185;SDS011;1604;53.700;10.252;2023-08-31T06:32:17;5.83;;;4.03;;
3185;SDS011;1604;53.700;10.252;2023-08-31T06:35:19;8.53;;;3.80;;
3185;SDS011;1604;53.700;10.252;2023-08-31T06:38:22;4.57;;;3.80;;
3185;SDS011;1604;53.700;10.252;2023-08-31T06:41:25;5.53;;;3.53;;
3185;SDS011;1604;53.700;10.252;2023-08-31T06:44:28;5.80;;;3.63;;
3185;SDS011;1604;53.700;10.252;2023-08-31T06:47:31;6.10;;;3.73;;
3185;SDS011;1604;53.700;10.252;2023-08-31T06:50:33;3.90;;;3.00;;
3185;SDS011;1604;53.700;10.252;2023-08-31T06:53:36;6.70;;;3.23;;
3185;SDS011;1604;53.700;10.252;2023-08-31T06:56:37;4.67;;;3.20;;
3185;SDS011;1604;53.700;10.252;2023-08-31T06:59:41;5.03;;;3.40;;
3185;SDS011;1604;53.700;10.252;2023-08-31T07:02:44;9.43;;;3.87;;
3185;SDS011;1604;53.700;10.252;2023-08-31T07:05:46;8.83;;;3.37;;
3185;SDS011;1604;53.700;10.252;2023-08-31T07:08:48;5.87;;;2.87;;
3185;SDS011;1604;53.700;10.252;2023-08-31T07:11:50;8.37;;;3.10;;
3185;SDS011;1604;53.700;10.252;2023-08-31T07:14:54;3.17;;;2.90;;
3185;SDS011;1604;53.700;10.252;2023-08-31T07:17:56;7.67;;;3.17;;
3185;SDS011;1604;53.700;10.252;2023-08-31T07:20:58;6.30;;;3.07;;
3185;SDS011;1604;53.700;10.252;2023-08-31T07:24:00;3.90;;;2.53;;
3185;SDS011;1604;53.700;10.252;2023-08-31T07:27:02;4.47;;;3.13;;
3185;SDS011;1604;53.700;10.252;2023-08-31T07:30:06;7.30;;;2.60;;
3185;SDS011;1604;53.700;10.252;2023-08-31T07:33:10;6.80;;;2.90;;
3185;SDS011;1604;53.700;10.252;2023-08-31T07:36:12;3.00;;;2.37;;
3185;SDS011;1604;53.700;10.252;2023-08-31T07:39:15;4.73;;;2.73;;
3185;SDS011;1604;53.700;10.252;2023-08-31T07:42:18;5.43;;;2.33;;
3185;SDS011;1604;53.700;10.252;2023-08-31T07:45:21;3.20;;;2.63;;
3185;SDS011;1604;53.700;10.252;2023-08-31T07:48:23;6.43;;;2.53;;
3185;SDS011;1604;53.700;10.252;2023-08-31T07:51:25;6.20;;;2.70;;
3185;SDS011;1604;53.700;10.252;2023-08-31T07:54:27;3.63;;;2.40;;
3185;SDS011;1604;53.700;10.252;2023-08-31T07:57:29;2.83;;;2.57;;
3185;SDS011;1604;53.700;10.252;2023-08-31T08:00:32;4.23;;;2.33;;
3185;SDS011;1604;53.700;10.252;2023-08-31T08:03:34;3.07;;;1.80;;
3185;SDS011;1604;53.700;10.252;2023-08-31T08:06:36;10.80;;;1.73;;
3185;SDS011;1604;53.700;10.252;2023-08-31T08:09:38;3.77;;;2.00;;
3185;SDS011;1604;53.700;10.252;2023-08-31T08:12:40;7.07;;;1.60;;
3185;SDS011;1604;53.700;10.252;2023-08-31T08:15:46;6.33;;;1.83;;
3185;SDS011;1604;53.700;10.252;2023-08-31T08:18:49;2.70;;;1.70;;
3185;SDS011;1604;53.700;10.252;2023-08-31T08:21:51;2.03;;;1.30;;
3185;SDS011;1604;53.700;10.252;2023-08-31T08:24:53;2.53;;;1.80;;
3185;SDS011;1604;53.700;10.252;2023-08-31T08:27:55;1.73;;;1.53;;
3185;SDS011;1604;53.700;10.252;2023-08-31T08:31:00;4.23;;;1.77;;
3185;SDS011;1604;53.700;10.252;2023-08-31T08:34:03;1.67;;;1.37;;
3185;SDS011;1604;53.700;10.252;2023-08-31T08:37:05;2.30;;;1.47;;
3185;SDS011;1604;53.700;10.252;2023-08-31T08:40:08;1.30;;;1.10;;
3185;SDS011;1604;53.700;10.252;2023-08-31T08:43:11;1.97;;;1.20;;
3185;SDS011;1604;53.700;10.252;2023-08-31T08:46:15;2.07;;;1.93;;
3185;SDS011;1604;53.700;10.252;2023-08-31T08:49:17;2.83;;;1.50;;
3185;SDS011;1604;53.700;10.252;2023-08-31T08:52:20;2.57;;;1.53;;
3185;SDS011;1604;53.700;10.252;2023-08-31T08:55:22;2.77;;;1.70;;
3185;SDS011;1604;53.700;10.252;2023-08-31T08:58:24;3.40;;;1.90;;
3185;SDS011;1604;53.700;10.252;2023-08-31T09:01:28;4.77;;;2.53;;
3185;SDS011;1604;53.700;10.252;2023-08-31T09:04:30;2.00;;;1.90;;
3185;SDS011;1604;53.700;10.252;2023-08-31T09:07:34;7.73;;;2.63;;
3185;SDS011;1604;53.700;10.252;2023-08-31T09:10:37;1.93;;;1.50;;
3185;SDS011;1604;53.700;10.252;2023-08-31T09:13:40;3.33;;;1.50;;
3185;SDS011;1604;53.700;10.252;2023-08-31T09:16:45;3.40;;;1.70;;
3185;SDS011;1604;53.700;10.252;2023-08-31T09:19:48;4.10;;;1.90;;
3185;SDS011;1604;53.700;10.252;2023-08-31T09:23:00;5.13;;;1.50;;
3185;SDS011;1604;53.700;10.252;2023-08-31T09:26:02;1.60;;;1.43;;
3185;SDS011;1604;53.700;10.252;2023-08-31T09:29:05;2.70;;;1.30;;
3185;SDS011;1604;53.700;10.252;2023-08-31T09:32:19;2.57;;;1.40;;
3185;SDS011;1604;53.700;10.252;2023-08-31T09:35:20;2.67;;;1.47;;
3185;SDS011;1604;53.700;10.252;2023-08-31T09:38:22;5.90;;;2.07;;
3185;SDS011;1604;53.700;10.252;2023-08-31T09:41:24;2.23;;;1.27;;
3185;SDS011;1604;53.700;10.252;2023-08-31T09:44:26;2.60;;;2.07;;
3185;SDS011;1604;53.700;10.252;2023-08-31T09:47:30;3.13;;;1.93;;
3185;SDS011;1604;53.700;10.252;2023-08-31T09:50:32;4.23;;;1.80;;
3185;SDS011;1604;53.700;10.252;2023-08-31T09:53:35;4.03;;;1.40;;
3185;SDS011;1604;53.700;10.252;2023-08-31T09:56:38;7.23;;;1.70;;
3185;SDS011;1604;53.700;10.252;2023-08-31T09:59:42;2.83;;;2.27;;
3185;SDS011;1604;53.700;10.252;2023-08-31T10:02:46;2.70;;;1.70;;
3185;SDS011;1604;53.700;10.252;2023-08-31T10:05:49;2.43;;;1.97;;
3185;SDS011;1604;53.700;10.252;2023-08-31T10:08:51;1.93;;;1.83;;
3185;SDS011;1604;53.700;10.252;2023-08-31T10:11:53;1.57;;;1.47;;
3185;SDS011;1604;53.700;10.252;2023-08-31T10:14:55;3.03;;;2.03;;
3185;SDS011;1604;53.700;10.252;2023-08-31T10:17:59;12.13;;;2.50;;
3185;SDS011;1604;53.700;10.252;2023-08-31T10:21:02;4.03;;;2.27;;
3185;SDS011;1604;53.700;10.252;2023-08-31T10:24:05;3.20;;;1.93;;
3185;SDS011;1604;53.700;10.252;2023-08-31T10:27:17;2.40;;;2.20;;
3185;SDS011;1604;53.700;10.252;2023-08-31T10:30:26;2.93;;;1.90;;
3185;SDS011;1604;53.700;10.252;2023-08-31T10:33:32;7.67;;;2.13;;
3185;SDS011;1604;53.700;10.252;2023-08-31T10:36:35;4.23;;;2.40;;
3185;SDS011;1604;53.700;10.252;2023-08-31T10:39:39;15.93;;;3.30;;
3185;SDS011;1604;53.700;10.252;2023-08-31T10:42:41;4.37;;;2.83;;
3185;SDS011;1604;53.700;10.252;2023-08-31T10:45:44;2.10;;;1.90;;
3185;SDS011;1604;53.700;10.252;2023-08-31T10:48:51;10.00;;;2.30;;
3185;SDS011;1604;53.700;10.252;2023-08-31T10:51:54;1.73;;;1.63;;
3185;SDS011;1604;53.700;10.252;2023-08-31T10:54:57;3.10;;;1.43;;
3185;SDS011;1604;53.700;10.252;2023-08-31T10:58:09;2.90;;;2.13;;
3185;SDS011;1604;53.700;10.252;2023-08-31T11:01:11;3.70;;;1.90;;
3185;SDS011;1604;53.700;10.252;2023-08-31T11:04:14;5.07;;;2.17;;
3185;SDS011;1604;53.700;10.252;2023-08-31T11:07:17;3.63;;;1.90;;
3185;SDS011;1604;53.700;10.252;2023-08-31T11:10:20;2.80;;;2.40;;
3185;SDS011;1604;53.700;10.252;2023-08-31T11:13:23;3.23;;;2.80;;
3185;SDS011;1604;53.700;10.252;2023-08-31T11:16:25;2.40;;;2.20;;
3185;SDS011;1604;53.700;10.252;2023-08-31T11:19:29;5.90;;;1.93;;
3185;SDS011;1604;53.700;10.252;2023-08-31T11:22:31;1.97;;;1.77;;
3185;SDS011;1604;53.700;10.252;2023-08-31T11:25:34;2.47;;;1.87;;
3185;SDS011;1604;53.700;10.252;2023-08-31T11:28:36;1.80;;;1.70;;
3185;SDS011;1604;53.700;10.252;2023-08-31T11:31:38;7.00;;;1.40;;
3185;SDS011;1604;53.700;10.252;2023-08-31T11:34:43;2.30;;;2.10;;
3185;SDS011;1604;53.700;10.252;2023-08-31T11:37:49;3.77;;;1.90;;
3185;SDS011;1604;53.700;10.252;2023-08-31T11:40:55;2.67;;;2.20;;
3185;SDS011;1604;53.700;10.252;2023-08-31T11:43:57;3.57;;;2.03;;
3185;SDS011;1604;53.700;10.252;2023-08-31T11:46:59;8.40;;;1.80;;
3185;SDS011;1604;53.700;10.252;2023-08-31T11:50:04;3.40;;;2.07;;
3185;SDS011;1604;53.700;10.252;2023-08-31T11:53:07;2.43;;;1.90;;
3185;SDS011;1604;53.700;10.252;2023-08-31T11:56:09;3.30;;;2.17;;
3185;SDS011;1604;53.700;10.252;2023-08-31T11:59:11;1.70;;;1.50;;
3185;SDS011;1604;53.700;10.252;2023-08-31T12:02:13;1.50;;;1.40;;
3185;SDS011;1604;53.700;10.252;2023-08-31T12:05:17;3.90;;;1.90;;
3185;SDS011;1604;53.700;10.252;2023-08-31T12:08:23;1.83;;;1.70;;
3185;SDS011;1604;53.700;10.252;2023-08-31T12:11:26;1.67;;;1.47;;
3185;SDS011;1604;53.700;10.252;2023-08-31T12:14:28;2.10;;;1.37;;
3185;SDS011;1604;53.700;10.252;2023-08-31T12:17:30;1.33;;;1.20;;
3185;SDS011;1604;53.700;10.252;2023-08-31T12:20:33;2.17;;;1.87;;
3185;SDS011;1604;53.700;10.252;2023-08-31T12:23:41;2.33;;;1.50;;
3185;SDS011;1604;53.700;10.252;2023-08-31T12:26:42;2.10;;;1.40;;
3185;SDS011;1604;53.700;10.252;2023-08-31T12:29:44;3.70;;;1.73;;
3185;SDS011;1604;53.700;10.252;2023-08-31T12:32:46;3.27;;;1.20;;
3185;SDS011;1604;53.700;10.252;2023-08-31T12:35:50;1.37;;;1.10;;
3185;SDS011;1604;53.700;10.252;2023-08-31T12:38:51;1.60;;;1.37;;
3185;SDS011;1604;53.700;10.252;2023-08-31T12:41:53;3.20;;;1.30;;
3185;SDS011;1604;53.700;10.252;2023-08-31T12:44:56;2.17;;;1.30;;
3185;SDS011;1604;53.700;10.252;2023-08-31T12:47:58;2.23;;;1.40;;
3185;SDS011;1604;53.700;10.252;2023-08-31T12:51:01;1.60;;;1.10;;
3185;SDS011;1604;53.700;10.252;2023-08-31T12:54:04;2.60;;;1.33;;
3185;SDS011;1604;53.700;10.252;2023-08-31T12:57:06;1.33;;;1.23;;
3185;SDS011;1604;53.700;10.252;2023-08-31T13:00:08;2.80;;;0.97;;
3185;SDS011;1604;53.700;10.252;2023-08-31T13:03:12;4.57;;;1.10;;
3185;SDS011;1604;53.700;10.252;2023-08-31T13:06:15;3.30;;;1.07;;
3185;SDS011;1604;53.700;10.252;2023-08-31T13:09:17;1.00;;;0.70;;
3185;SDS011;1604;53.700;10.252;2023-08-31T13:12:19;1.10;;;0.70;;
3185;SDS011;1604;53.700;10.252;2023-08-31T13:15:21;1.50;;;0.80;;
3185;SDS011;1604;53.700;10.252;2023-08-31T13:18:25;1.20;;;0.80;;
3185;SDS011;1604;53.700;10.252;2023-08-31T13:21:28;1.10;;;0.80;;
3185;SDS011;1604;53.700;10.252;2023-08-31T13:24:30;1.10;;;0.87;;
3185;SDS011;1604;53.700;10.252;2023-08-31T13:27:32;1.70;;;0.73;;
3185;SDS011;1604;53.700;10.252;2023-08-31T13:30:34;1.20;;;0.80;;
3185;SDS011;1604;53.700;10.252;2023-08-31T13:33:36;1.50;;;0.90;;
3185;SDS011;1604;53.700;10.252;2023-08-31T13:36:39;1.33;;;0.80;;
3185;SDS011;1604;53.700;10.252;2023-08-31T13:39:41;6.40;;;0.90;;
3185;SDS011;1604;53.700;10.252;2023-08-31T13:42:50;1.07;;;0.70;;
3185;SDS011;1604;53.700;10.252;2023-08-31T13:45:56;1.00;;;0.60;;
3185;SDS011;1604;53.700;10.252;2023-08-31T13:48:58;1.20;;;0.70;;
3185;SDS011;1604;53.700;10.252;2023-08-31T13:52:04;1.30;;;0.80;;
3185;SDS011;1604;53.700;10.252;2023-08-31T13:55:06;1.10;;;0.80;;
3185;SDS011;1604;53.700;10.252;2023-08-31T13:58:09;1.20;;;0.90;;
3185;SDS011;1604;53.700;10.252;2023-08-31T14:01:10;1.30;;;0.80;;
3185;SDS011;1604;53.700;10.252;2023-08-31T14:04:13;1.30;;;0.90;;
3185;SDS011;1604;53.700;10.252;2023-08-31T14:07:17;1.60;;;0.90;;
3185;SDS011;1604;53.700;10.252;2023-08-31T14:10:19;1.83;;;0.70;;
3185;SDS011;1604;53.700;10.252;2023-08-31T14:13:21;1.73;;;1.20;;
3185;SDS011;1604;53.700;10.252;2023-08-31T14:16:23;1.50;;;1.30;;
3185;SDS011;1604;53.700;10.252;2023-08-31T14:19:25;1.10;;;0.80;;
3185;SDS011;1604;53.700;10.252;2023-08-31T14:22:28;1.77;;;0.90;;
3185;SDS011;1604;53.700;10.252;2023-08-31T14:25:33;2.00;;;0.97;;
3185;SDS011;1604;53.700;10.252;2023-08-31T14:28:35;1.20;;;0.83;;
3185;SDS011;1604;53.700;10.252;2023-08-31T14:31:37;1.23;;;0.80;;
3185;SDS011;1604;53.700;10.252;2023-08-31T14:34:39;1.87;;;1.10;;
3185;SDS011;1604;53.700;10.252;2023-08-31T14:37:42;1.53;;;1.07;;
3185;SDS011;1604;53.700;10.252;2023-08-31T14:40:44;1.20;;;0.90;;
3185;SDS011;1604;53.700;10.252;2023-08-31T14:43:46;1.60;;;1.20;;
3185;SDS011;1604;53.700;10.252;2023-08-31T14:46:48;2.47;;;0.80;;
3185;SDS011;1604;53.700;10.252;2023-08-31T14:49:50;2.20;;;1.20;;
3185;SDS011;1604;53.700;10.252;2023-08-31T14:52:53;2.53;;;0.80;;
3185;SDS011;1604;53.700;10.252;2023-08-31T14:55:55;1.20;;;0.90;;
3185;SDS011;1604;53.700;10.252;2023-08-31T14:58:57;1.47;;;1.00;;
3185;SDS011;1604;53.700;10.252;2023-08-31T15:01:59;1.33;;;1.00;;
3185;SDS011;1604;53.700;10.252;2023-08-31T15:05:05;4.90;;;1.23;;
3185;SDS011;1604;53.700;10.252;2023-08-31T15:08:08;1.30;;;1.10;;
3185;SDS011;1604;53.700;10.252;2023-08-31T15:11:11;2.10;;;1.10;;
3185;SDS011;1604;53.700;10.252;2023-08-31T15:14:13;1.30;;;0.90;;
3185;SDS011;1604;53.700;10.252;2023-08-31T15:17:15;1.23;;;1.13;;
3185;SDS011;1604;53.700;10.252;2023-08-31T15:20:17;1.33;;;1.07;;
3185;SDS011;1604;53.700;10.252;2023-08-31T15:23:20;1.20;;;0.80;;
3185;SDS011;1604;53.700;10.252;2023-08-31T15:26:22;6.63;;;1.43;;
3185;SDS011;1604;53.700;10.252;2023-08-31T15:29:24;4.60;;;1.10;;
3185;SDS011;1604;53.700;10.252;2023-08-31T15:32:27;1.80;;;1.00;;
3185;SDS011;1604;53.700;10.252;2023-08-31T15:35:29;2.33;;;1.67;;
3185;SDS011;1604;53.700;10.252;2023-08-31T15:38:34;1.30;;;1.17;;
3185;SDS011;1604;53.700;10.252;2023-08-31T15:41:36;1.20;;;0.70;;
3185;SDS011;1604;53.700;10.252;2023-08-31T15:44:39;2.00;;;1.07;;
3185;SDS011;1604;53.700;10.252;2023-08-31T15:47:42;1.10;;;0.70;;
3185;SDS011;1604;53.700;10.252;2023-08-31T15:50:44;3.07;;;1.43;;
3185;SDS011;1604;53.700;10.252;2023-08-31T15:53:47;1.20;;;1.00;;
3185;SDS011;1604;53.700;10.252;2023-08-31T15:56:49;1.50;;;0.90;;
3185;SDS011;1604;53.700;10.252;2023-08-31T15:59:51;3.00;;;1.27;;
3185;SDS011;1604;53.700;10.252;2023-08-31T16:02:58;1.50;;;1.10;;
3185;SDS011;1604;53.700;10.252;2023-08-31T16:06:00;4.20;;;1.13;;
3185;SDS011;1604;53.700;10.252;2023-08-31T16:09:04;2.20;;;1.10;;
3185;SDS011;1604;53.700;10.252;2023-08-31T16:12:07;1.20;;;1.00;;
3185;SDS011;1604;53.700;10.252;2023-08-31T16:15:10;1.67;;;1.00;;
3185;SDS011;1604;53.700;10.252;2023-08-31T16:18:12;1.63;;;1.10;;
3185;SDS011;1604;53.700;10.252;2023-08-31T16:21:14;2.87;;;1.07;;
3185;SDS011;1604;53.700;10.252;2023-08-31T16:24:17;1.30;;;1.00;;
3185;SDS011;1604;53.700;10.252;2023-08-31T16:27:19;2.37;;;0.90;;
3185;SDS011;1604;53.700;10.252;2023-08-31T16:30:21;3.80;;;1.80;;
3185;SDS011;1604;53.700;10.252;2023-08-31T16:33:23;1.50;;;1.10;;
3185;SDS011;1604;53.700;10.252;2023-08-31T16:36:25;2.23;;;1.03;;
3185;SDS011;1604;53.700;10.252;2023-08-31T16:39:29;3.03;;;1.30;;
3185;SDS011;1604;53.700;10.252;2023-08-31T16:42:31;2.13;;;1.17;;
3185;SDS011;1604;53.700;10.252;2023-08-31T16:45:33;1.53;;;1.43;;
3185;SDS011;1604;53.700;10.252;2023-08-31T16:48:34;1.73;;;1.20;;
3185;SDS011;1604;53.700;10.252;2023-08-31T16:51:36;1.63;;;1.17;;
3185;SDS011;1604;53.700;10.252;2023-08-31T16:54:41;1.57;;;1.43;;
3185;SDS011;1604;53.700;10.252;2023-08-31T16:57:43;1.73;;;1.27;;
3185;SDS011;1604;53.700;10.252;2023-08-31T17:00:45;6.43;;;1.47;;
3185;SDS011;1604;53.700;10.252;2023-08-31T17:03:47;2.80;;;1.20;;
3185;SDS011;1604;53.700;10.252;2023-08-31T17:06:48;8.67;;;1.77;;
3185;SDS011;1604;53.700;10.252;2023-08-31T17:09:52;1.23;;;0.90;;
3185;SDS011;1604;53.700;10.252;2023-08-31T17:12:56;3.60;;;1.50;;
3185;SDS011;1604;53.700;10.252;2023-08-31T17:15:57;3.20;;;1.20;;
3185;SDS011;1604;53.700;10.252;2023-08-31T17:18:59;7.10;;;1.20;;
3185;SDS011;1604;53.700;10.252;2023-08-31T17:22:01;5.00;;;1.30;;
3185;SDS011;1604;53.700;10.252;2023-08-31T17:25:06;1.33;;;1.23;;
3185;SDS011;1604;53.700;10.252;2023-08-31T17:28:08;2.60;;;1.30;;
3185;SDS011;1604;53.700;10.252;2023-08-31T17:31:10;2.80;;;1.13;;
3185;SDS011;1604;53.700;10.252;2023-08-31T17:34:12;4.93;;;1.40;;
3185;SDS011;1604;53.700;10.252;2023-08-31T17:37:19;2.13;;;1.20;;
3185;SDS011;1604;53.700;10.252;2023-08-31T17:40:22;1.50;;;0.90;;
3185;SDS011;1604;53.700;10.252;2023-08-31T17:43:24;2.97;;;1.00;;
3185;SDS011;1604;53.700;10.252;2023-08-31T17:46:26;1.77;;;1.23;;
3185;SDS011;1604;53.700;10.252;2023-08-31T17:49:30;1.83;;;1.57;;
3185;SDS011;1604;53.700;10.252;2023-08-31T17:52:32;2.23;;;1.10;;
3185;SDS011;1604;53.700;10.252;2023-08-31T17:55:35;1.40;;;1.17;;
3185;SDS011;1604;53.700;10.252;2023-08-31T17:58:37;2.20;;;1.00;;
3185;SDS011;1604;53.700;10.252;2023-08-31T18:01:39;3.10;;;1.37;;
3185;SDS011;1604;53.700;10.252;2023-08-31T18:04:41;1.90;;;1.40;;
3185;SDS011;1604;53.700;10.252;2023-08-31T18:07:46;1.97;;;1.43;;
3185;SDS011;1604;53.700;10.252;2023-08-31T18:10:49;1.80;;;1.40;;
3185;SDS011;1604;53.700;10.252;2023-08-31T18:13:52;3.30;;;1.70;;
3185;SDS011;1604;53.700;10.252;2023-08-31T18:16:54;2.20;;;1.57;;
3185;SDS011;1604;53.700;10.252;2023-08-31T18:19:56;5.40;;;1.77;;
3185;SDS011;1604;53.700;10.252;2023-08-31T18:22:58;2.50;;;1.97;;
3185;SDS011;1604;53.700;10.252;2023-08-31T18:26:01;1.60;;;1.50;;
3185;SDS011;1604;53.700;10.252;2023-08-31T18:29:04;1.67;;;1.10;;
3185;SDS011;1604;53.700;10.252;2023-08-31T18:32:06;4.17;;;1.67;;